createdAt,value
2023-04-15T00:00:30.892Z,37.7
2023-04-15T00:06:36.710Z,37.7
2023-04-15T00:12:42.459Z,37.7
2023-04-15T00:18:48.077Z,37.6
2023-04-15T00:24:53.351Z,37.6
2023-04-15T00:30:58.948Z,37.6
2023-04-15T00:37:04.354Z,37.6
2023-04-15T00:43:09.871Z,37.6
2023-04-15T00:49:15.055Z,37.6
2023-04-15T00:55:21.251Z,37.5
2023-04-15T01:01:27.022Z,37.6
2023-04-15T01:07:32.182Z,37.5
2023-04-15T01:13:37.326Z,37.5
2023-04-15T01:19:43.325Z,37.5
2023-04-15T01:25:48.674Z,37.5
2023-04-15T01:31:54.682Z,37.5
2023-04-15T01:38:00.228Z,37.5
2023-04-15T01:44:06.017Z,37.5
2023-04-15T01:50:11.651Z,37.5
2023-04-15T01:56:19.599Z,37.4
2023-04-15T02:02:26.076Z,37.4
2023-04-15T02:08:31.366Z,37.4
2023-04-15T02:14:37.227Z,37.4
2023-04-15T02:20:42.572Z,37.4
2023-04-15T02:26:48.563Z,37.4
2023-04-15T02:32:54.316Z,37.4
2023-04-15T02:39:00.515Z,37.4
2023-04-15T02:45:06.291Z,37.3
2023-04-15T02:51:12.080Z,37.3
2023-04-15T02:57:17.452Z,37.3
2023-04-15T03:03:23.424Z,37.3
2023-04-15T03:09:29.192Z,37.2
2023-04-15T03:15:34.402Z,37.2
2023-04-15T03:21:40.346Z,37.1
2023-04-15T03:27:46.508Z,37.1
2023-04-15T03:33:51.602Z,37.1
2023-04-15T03:39:57.047Z,37
2023-04-15T03:46:04.884Z,37
2023-04-15T03:52:09.702Z,37
2023-04-15T03:58:15.562Z,37
2023-04-15T04:04:21.452Z,37
2023-04-15T04:10:26.957Z,37
2023-04-15T04:16:32.701Z,36.9
2023-04-15T04:22:38.295Z,36.9
2023-04-15T04:28:44.052Z,36.9
2023-04-15T04:34:49.612Z,36.8
2023-04-15T04:40:55.606Z,36.8
2023-04-15T04:47:01.175Z,36.8
2023-04-15T04:53:06.750Z,36.8
2023-04-15T04:59:12.587Z,36.8
2023-04-15T05:05:18.140Z,36.7
2023-04-15T05:11:24.124Z,36.7
2023-04-15T05:17:29.948Z,36.6
2023-04-15T05:23:35.679Z,36.6
2023-04-15T05:29:41.605Z,36.5
2023-04-15T05:35:47.190Z,36.5
2023-04-15T05:41:52.601Z,36.5
2023-04-15T05:47:58.434Z,36.4
2023-04-15T05:54:04.722Z,36.3
2023-04-15T06:00:09.936Z,36.3
2023-04-15T06:06:15.891Z,36.3
2023-04-15T06:12:21.457Z,36.2
2023-04-15T06:18:27.036Z,36.2
2023-04-15T06:24:32.418Z,36.1
2023-04-15T06:30:38.379Z,36.1
2023-04-15T06:36:44.140Z,36.1
2023-04-15T06:42:49.927Z,36
2023-04-15T06:48:55.895Z,36
2023-04-15T06:55:01.720Z,36
2023-04-15T07:01:07.513Z,36
2023-04-15T07:07:12.465Z,35.9
2023-04-15T07:13:17.784Z,35.8
2023-04-15T07:19:23.564Z,35.8
2023-04-15T07:25:29.144Z,35.8
2023-04-15T07:31:35.363Z,35.8
2023-04-15T07:37:40.688Z,35.7
2023-04-15T07:43:47.083Z,35.7
2023-04-15T07:49:52.862Z,35.7
2023-04-15T07:55:58.030Z,35.7
2023-04-15T08:02:03.827Z,35.5
2023-04-15T08:08:08.965Z,35.6
2023-04-15T08:14:14.723Z,35.6
2023-04-15T08:20:20.644Z,35.4
2023-04-15T08:26:26.093Z,35.5
2023-04-15T08:32:31.733Z,35.4
2023-04-15T08:38:37.514Z,35.3
2023-04-15T08:44:43.079Z,35.2
2023-04-15T08:50:48.398Z,35.4
2023-04-15T08:56:53.996Z,35.4
2023-04-15T09:02:59.771Z,35.4
2023-04-15T09:09:05.987Z,35.2
2023-04-15T09:15:11.351Z,35.3
2023-04-15T09:21:16.841Z,35.3
2023-04-15T09:27:22.052Z,35.3
2023-04-15T09:33:26.882Z,35.2
2023-04-15T09:39:32.133Z,35.3
2023-04-15T09:45:37.504Z,35.2
2023-04-15T09:51:57.868Z,35.2
2023-04-15T09:58:07.494Z,35.2
2023-04-15T10:04:13.937Z,35.1
2023-04-15T10:10:19.654Z,35.1
2023-04-15T10:16:25.559Z,35.1
2023-04-15T10:22:31.199Z,35
2023-04-15T10:28:36.573Z,35
2023-04-15T10:34:42.423Z,35.1
2023-04-15T10:40:48.189Z,35.2
2023-04-15T10:46:54.237Z,35
2023-04-15T10:53:00.508Z,35.1
2023-04-15T10:59:06.085Z,35
2023-04-15T11:05:11.852Z,34.9
2023-04-15T11:11:17.041Z,34.9
2023-04-15T11:17:22.813Z,34.9
2023-04-15T11:23:28.979Z,34.9
2023-04-15T11:29:34.224Z,34.8
2023-04-15T11:35:40.119Z,34.9
2023-04-15T11:41:45.710Z,34.9
2023-04-15T11:47:51.297Z,35
2023-04-15T11:53:57.253Z,34.9
2023-04-15T12:00:02.835Z,35
2023-04-15T12:06:08.218Z,35
2023-04-15T12:12:13.778Z,34.9
2023-04-15T12:18:19.278Z,35
2023-04-15T12:24:25.525Z,35
2023-04-15T12:30:31.342Z,35
2023-04-15T12:36:37.509Z,35
2023-04-15T12:42:43.070Z,35.1
2023-04-15T12:48:48.898Z,35.1
2023-04-15T12:54:53.961Z,35.1
2023-04-15T13:00:59.428Z,35.1
2023-04-15T13:07:04.999Z,35.1
2023-04-15T13:13:10.949Z,35.1
2023-04-15T13:19:16.163Z,35.1
2023-04-15T13:25:21.590Z,35.1
2023-04-15T13:31:27.093Z,35.1
2023-04-15T13:37:32.403Z,35
2023-04-15T13:43:38.235Z,35
2023-04-15T13:49:43.965Z,34.9
2023-04-15T13:55:49.168Z,34.9
2023-04-15T14:01:54.990Z,34.9
2023-04-15T14:08:00.744Z,34.9
2023-04-15T14:14:07.002Z,34.9
2023-04-15T14:20:13.971Z,35
2023-04-15T14:26:20.048Z,34.9
2023-04-15T14:32:25.885Z,34.9
2023-04-15T14:38:31.205Z,34.9
2023-04-15T14:44:36.771Z,34.8
2023-04-15T14:50:42.193Z,34.8
2023-04-15T14:56:47.712Z,34.9
2023-04-15T15:02:53.568Z,34.8
2023-04-15T15:08:58.869Z,34.8
2023-04-15T15:15:28.415Z,34.8
2023-04-15T15:21:34.176Z,34.7
2023-04-15T15:27:41.823Z,34.8
2023-04-15T15:33:47.772Z,34.8
2023-04-15T15:39:53.613Z,34.8
2023-04-15T15:45:59.394Z,34.9
2023-04-15T15:52:05.384Z,34.9
2023-04-15T15:58:11.101Z,35
2023-04-15T16:04:17.791Z,35.1
2023-04-15T16:10:23.654Z,35.1
2023-04-15T16:16:29.553Z,35.2
2023-04-15T16:22:35.419Z,35.2
2023-04-15T16:28:41.012Z,35.2
2023-04-15T16:34:46.158Z,35.3
2023-04-15T16:40:51.393Z,35.3
2023-04-15T16:46:56.723Z,35.3
2023-04-15T16:53:02.110Z,35.4
2023-04-15T16:59:07.502Z,35.4
2023-04-15T17:05:12.673Z,35.4
2023-04-15T17:11:18.179Z,35.5
2023-04-15T17:17:24.210Z,35.5
2023-04-15T17:23:29.511Z,35.5
2023-04-15T17:29:34.881Z,35.6
2023-04-15T17:35:40.654Z,35.5
2023-04-15T17:41:46.295Z,35.6
2023-04-15T17:47:51.648Z,35.7
2023-04-15T17:53:56.204Z,35.9
2023-04-15T18:00:01.345Z,36
2023-04-15T18:06:06.897Z,35.9
2023-04-15T18:12:12.656Z,35.8
2023-04-15T18:18:17.696Z,36
2023-04-15T18:24:22.835Z,35.9
2023-04-15T18:30:28.780Z,36.1
2023-04-15T18:36:34.135Z,36.2
2023-04-15T18:42:39.507Z,36.3
2023-04-15T18:48:45.478Z,36.2
2023-04-15T18:54:51.105Z,36.1
2023-04-15T19:00:56.712Z,36.3
2023-04-15T19:07:02.262Z,36.3
2023-04-15T19:13:07.859Z,36.3
2023-04-15T19:19:13.416Z,36.4
2023-04-15T19:25:19.521Z,36.3
2023-04-15T19:31:25.155Z,36.3
2023-04-15T19:37:30.772Z,36.3
2023-04-15T19:43:36.330Z,36.4
2023-04-15T19:49:41.883Z,36.4
2023-04-15T19:55:47.259Z,36.4
2023-04-15T20:01:53.104Z,36.3
2023-04-15T20:08:01.484Z,36.3
2023-04-15T20:14:07.202Z,36.4
2023-04-15T20:20:13.002Z,36.3
2023-04-15T20:26:18.746Z,36.6
2023-04-15T20:32:24.750Z,36.4
2023-04-15T20:38:30.360Z,36.5
2023-04-15T20:44:36.112Z,36.4
2023-04-15T20:50:41.714Z,36.5
2023-04-15T20:56:46.652Z,36.5
2023-04-15T21:02:52.214Z,36.4
2023-04-15T21:08:58.004Z,36.7
2023-04-15T21:15:03.592Z,36.5
2023-04-15T21:21:09.095Z,36.7
2023-04-15T21:27:14.462Z,36.5
2023-04-15T21:33:21.276Z,36.7
2023-04-15T21:39:26.482Z,36.9
2023-04-15T21:45:32.300Z,36.8
2023-04-15T21:51:37.846Z,36.9
2023-04-15T21:57:43.410Z,36.6
2023-04-15T22:03:49.833Z,36.8
2023-04-15T22:09:55.128Z,36.9
2023-04-15T22:16:01.134Z,36.8
2023-04-15T22:22:06.517Z,36.9
2023-04-15T22:28:12.455Z,37
2023-04-15T22:34:18.472Z,37.1
2023-04-15T22:40:23.620Z,37.1
2023-04-15T22:46:28.981Z,37
2023-04-15T22:52:34.776Z,37.1
2023-04-15T22:58:39.777Z,37
2023-04-15T23:04:45.911Z,37.1
2023-04-15T23:10:51.069Z,37.2
2023-04-15T23:16:56.416Z,37.1
2023-04-15T23:23:01.779Z,37
2023-04-15T23:29:07.061Z,37.2
2023-04-15T23:35:12.110Z,37.2
2023-04-15T23:41:17.495Z,37.2
2023-04-15T23:47:23.258Z,37.2
2023-04-15T23:53:28.829Z,37.2
2023-04-15T23:59:34.393Z,37.2
